sensor_id;sensor_type;location;lat;lon;timestamp;temperature;humidity
12481;DHT22;6305;48.398;11.762;2023-05-29T00:00:02;9.90;99.90
12481;DHT22;6305;48.398;11.762;2023-05-29T00:02:36;9.90;99.90
12481;DHT22;6305;48.398;11.762;2023-05-29T00:05:05;9.90;99.90
12481;DHT22;6305;48.398;11.762;2023-05-29T00:07:32;9.90;99.90
12481;DHT22;6305;48.398;11.762;2023-05-29T00:09:59;10.00;99.90
12481;DHT22;6305;48.398;11.762;2023-05-29T00:12:26;10.00;99.90
12481;DHT22;6305;48.398;11.762;2023-05-29T00:14:53;10.00;99.90
12481;DHT22;6305;48.398;11.762;2023-05-29T00:17:20;9.90;99.90
12481;DHT22;6305;48.398;11.762;2023-05-29T00:19:47;9.90;99.90
12481;DHT22;6305;48.398;11.762;2023-05-29T00:22:15;9.90;99.90
12481;DHT22;6305;48.398;11.762;2023-05-29T00:24:42;9.90;99.90
12481;DHT22;6305;48.398;11.762;2023-05-29T00:27:09;9.90;99.90
12481;DHT22;6305;48.398;11.762;2023-05-29T00:29:36;9.80;99.90
12481;DHT22;6305;48.398;11.762;2023-05-29T00:32:06;9.80;99.90
12481;DHT22;6305;48.398;11.762;2023-05-29T00:34:33;9.80;99.90
12481;DHT22;6305;48.398;11.762;2023-05-29T00:37:00;9.80;99.90
12481;DHT22;6305;48.398;11.762;2023-05-29T00:39:28;9.70;99.90
12481;DHT22;6305;48.398;11.762;2023-05-29T00:41:56;9.70;99.90
12481;DHT22;6305;48.398;11.762;2023-05-29T00:44:23;9.70;99.90
12481;DHT22;6305;48.398;11.762;2023-05-29T00:46:52;9.70;99.90
12481;DHT22;6305;48.398;11.762;2023-05-29T00:49:20;9.70;99.90
12481;DHT22;6305;48.398;11.762;2023-05-29T00:51:51;9.70;99.90
12481;DHT22;6305;48.398;11.762;2023-05-29T00:54:21;9.70;99.90
12481;DHT22;6305;48.398;11.762;2023-05-29T00:56:51;9.70;99.90
12481;DHT22;6305;48.398;11.762;2023-05-29T00:59:19;9.80;99.90
12481;DHT22;6305;48.398;11.762;2023-05-29T01:01:49;9.80;99.90
12481;DHT22;6305;48.398;11.762;2023-05-29T01:04:16;9.80;99.90
12481;DHT22;6305;48.398;11.762;2023-05-29T01:06:43;9.80;99.90
12481;DHT22;6305;48.398;11.762;2023-05-29T01:09:11;9.80;99.90
12481;DHT22;6305;48.398;11.762;2023-05-29T01:11:45;9.80;99.90
12481;DHT22;6305;48.398;11.762;2023-05-29T01:14:25;9.80;99.90
12481;DHT22;6305;48.398;11.762;2023-05-29T01:17:03;9.80;99.90
12481;DHT22;6305;48.398;11.762;2023-05-29T01:19:46;9.80;99.90
12481;DHT22;6305;48.398;11.762;2023-05-29T01:22:30;9.80;99.90
12481;DHT22;6305;48.398;11.762;2023-05-29T01:25:08;9.70;99.90
12481;DHT22;6305;48.398;11.762;2023-05-29T01:27:40;9.70;99.90
12481;DHT22;6305;48.398;11.762;2023-05-29T01:30:09;9.70;99.90
12481;DHT22;6305;48.398;11.762;2023-05-29T01:32:39;9.70;99.90
12481;DHT22;6305;48.398;11.762;2023-05-29T01:35:07;9.70;99.90
12481;DHT22;6305;48.398;11.762;2023-05-29T01:37:34;9.80;99.90
12481;DHT22;6305;48.398;11.762;2023-05-29T01:40:01;9.70;99.90
12481;DHT22;6305;48.398;11.762;2023-05-29T01:42:29;9.80;99.90
12481;DHT22;6305;48.398;11.762;2023-05-29T01:44:59;9.70;99.90
12481;DHT22;6305;48.398;11.762;2023-05-29T01:47:26;9.70;99.90
12481;DHT22;6305;48.398;11.762;2023-05-29T01:49:54;9.70;99.90
12481;DHT22;6305;48.398;11.762;2023-05-29T01:52:22;9.60;99.90
12481;DHT22;6305;48.398;11.762;2023-05-29T01:54:49;9.60;99.90
12481;DHT22;6305;48.398;11.762;2023-05-29T01:57:16;9.50;99.90
12481;DHT22;6305;48.398;11.762;2023-05-29T01:59:44;9.50;99.90
12481;DHT22;6305;48.398;11.762;2023-05-29T02:02:13;9.40;99.90
12481;DHT22;6305;48.398;11.762;2023-05-29T02:04:40;9.40;99.90
12481;DHT22;6305;48.398;11.762;2023-05-29T02:07:06;9.30;99.90
12481;DHT22;6305;48.398;11.762;2023-05-29T02:09:34;9.20;99.90
12481;DHT22;6305;48.398;11.762;2023-05-29T02:12:01;9.10;99.90
12481;DHT22;6305;48.398;11.762;2023-05-29T02:14:29;9.10;99.90
12481;DHT22;6305;48.398;11.762;2023-05-29T02:16:57;9.10;99.90
12481;DHT22;6305;48.398;11.762;2023-05-29T02:19:25;9.10;99.90
12481;DHT22;6305;48.398;11.762;2023-05-29T02:21:53;9.00;99.90
12481;DHT22;6305;48.398;11.762;2023-05-29T02:24:20;9.00;99.90
12481;DHT22;6305;48.398;11.762;2023-05-29T02:26:48;9.00;99.90
12481;DHT22;6305;48.398;11.762;2023-05-29T02:29:15;8.90;99.90
12481;DHT22;6305;48.398;11.762;2023-05-29T02:31:42;9.00;99.90
12481;DHT22;6305;48.398;11.762;2023-05-29T02:34:09;8.90;99.90
12481;DHT22;6305;48.398;11.762;2023-05-29T02:36:38;8.90;99.90
12481;DHT22;6305;48.398;11.762;2023-05-29T02:39:05;8.90;99.90
12481;DHT22;6305;48.398;11.762;2023-05-29T02:41:32;8.80;99.90
12481;DHT22;6305;48.398;11.762;2023-05-29T02:43:59;8.80;99.90
12481;DHT22;6305;48.398;11.762;2023-05-29T02:46:26;8.70;99.90
12481;DHT22;6305;48.398;11.762;2023-05-29T02:48:53;8.80;99.90
12481;DHT22;6305;48.398;11.762;2023-05-29T02:51:20;8.70;99.90
12481;DHT22;6305;48.398;11.762;2023-05-29T02:53:48;8.70;99.90
12481;DHT22;6305;48.398;11.762;2023-05-29T02:56:15;8.70;99.90
12481;DHT22;6305;48.398;11.762;2023-05-29T02:58:42;8.60;99.90
12481;DHT22;6305;48.398;11.762;2023-05-29T03:01:11;8.60;99.90
12481;DHT22;6305;48.398;11.762;2023-05-29T03:03:38;8.50;99.90
12481;DHT22;6305;48.398;11.762;2023-05-29T03:06:05;8.40;99.90
12481;DHT22;6305;48.398;11.762;2023-05-29T03:08:34;8.40;99.90
12481;DHT22;6305;48.398;11.762;2023-05-29T03:11:07;8.40;99.90
12481;DHT22;6305;48.398;11.762;2023-05-29T03:13:36;8.30;99.90
12481;DHT22;6305;48.398;11.762;2023-05-29T03:16:06;8.30;99.90
12481;DHT22;6305;48.398;11.762;2023-05-29T03:18:34;8.30;99.90
12481;DHT22;6305;48.398;11.762;2023-05-29T03:21:02;8.30;99.90
12481;DHT22;6305;48.398;11.762;2023-05-29T03:23:32;8.40;99.90
12481;DHT22;6305;48.398;11.762;2023-05-29T03:25:59;8.40;99.90
12481;DHT22;6305;48.398;11.762;2023-05-29T03:28:28;8.40;99.90
12481;DHT22;6305;48.398;11.762;2023-05-29T03:30:57;8.40;99.90
12481;DHT22;6305;48.398;11.762;2023-05-29T03:33:24;8.30;99.90
12481;DHT22;6305;48.398;11.762;2023-05-29T03:36:05;8.30;99.90
12481;DHT22;6305;48.398;11.762;2023-05-29T03:38:33;8.40;99.90
12481;DHT22;6305;48.398;11.762;2023-05-29T03:41:00;8.40;99.90
12481;DHT22;6305;48.398;11.762;2023-05-29T03:43:28;8.40;99.90
12481;DHT22;6305;48.398;11.762;2023-05-29T03:45:56;8.50;99.90
12481;DHT22;6305;48.398;11.762;2023-05-29T03:48:24;8.50;99.90
12481;DHT22;6305;48.398;11.762;2023-05-29T03:50:51;8.50;99.90
12481;DHT22;6305;48.398;11.762;2023-05-29T03:53:25;8.60;99.90
12481;DHT22;6305;48.398;11.762;2023-05-29T03:55:52;8.70;99.90
12481;DHT22;6305;48.398;11.762;2023-05-29T03:58:20;8.80;99.90
12481;DHT22;6305;48.398;11.762;2023-05-29T04:00:49;8.90;99.90
12481;DHT22;6305;48.398;11.762;2023-05-29T04:03:18;9.00;99.90
12481;DHT22;6305;48.398;11.762;2023-05-29T04:05:45;9.20;99.90
12481;DHT22;6305;48.398;11.762;2023-05-29T04:08:13;9.30;99.90
12481;DHT22;6305;48.398;11.762;2023-05-29T04:10:40;9.40;99.90
12481;DHT22;6305;48.398;11.762;2023-05-29T04:13:07;9.60;99.90
12481;DHT22;6305;48.398;11.762;2023-05-29T04:15:34;9.70;99.90
12481;DHT22;6305;48.398;11.762;2023-05-29T04:18:02;9.90;99.90
12481;DHT22;6305;48.398;11.762;2023-05-29T04:20:29;10.10;99.90
12481;DHT22;6305;48.398;11.762;2023-05-29T04:22:56;10.30;99.90
12481;DHT22;6305;48.398;11.762;2023-05-29T04:25:23;10.40;99.90
12481;DHT22;6305;48.398;11.762;2023-05-29T04:27:51;10.70;99.90
12481;DHT22;6305;48.398;11.762;2023-05-29T04:30:19;10.90;99.90
12481;DHT22;6305;48.398;11.762;2023-05-29T04:32:48;11.10;99.90
12481;DHT22;6305;48.398;11.762;2023-05-29T04:35:16;11.30;99.90
12481;DHT22;6305;48.398;11.762;2023-05-29T04:37:52;11.60;99.90
12481;DHT22;6305;48.398;11.762;2023-05-29T04:40:19;11.90;99.90
12481;DHT22;6305;48.398;11.762;2023-05-29T04:42:46;12.10;99.90
12481;DHT22;6305;48.398;11.762;2023-05-29T04:45:14;12.40;99.90
12481;DHT22;6305;48.398;11.762;2023-05-29T04:47:42;12.60;99.90
12481;DHT22;6305;48.398;11.762;2023-05-29T04:50:11;12.90;99.90
12481;DHT22;6305;48.398;11.762;2023-05-29T04:52:40;13.10;99.90
12481;DHT22;6305;48.398;11.762;2023-05-29T04:55:09;13.40;99.90
12481;DHT22;6305;48.398;11.762;2023-05-29T04:57:37;13.70;99.90
12481;DHT22;6305;48.398;11.762;2023-05-29T05:00:07;13.90;99.90
12481;DHT22;6305;48.398;11.762;2023-05-29T05:02:37;14.20;99.90
12481;DHT22;6305;48.398;11.762;2023-05-29T05:05:05;14.50;99.90
12481;DHT22;6305;48.398;11.762;2023-05-29T05:07:33;14.80;99.90
12481;DHT22;6305;48.398;11.762;2023-05-29T05:10:01;15.10;99.90
12481;DHT22;6305;48.398;11.762;2023-05-29T05:12:28;15.40;99.90
12481;DHT22;6305;48.398;11.762;2023-05-29T05:14:55;15.60;99.90
12481;DHT22;6305;48.398;11.762;2023-05-29T05:17:23;15.90;99.90
12481;DHT22;6305;48.398;11.762;2023-05-29T05:19:51;16.10;99.90
12481;DHT22;6305;48.398;11.762;2023-05-29T05:22:19;16.40;99.90
12481;DHT22;6305;48.398;11.762;2023-05-29T05:24:48;16.60;99.90
12481;DHT22;6305;48.398;11.762;2023-05-29T05:27:17;16.90;99.90
12481;DHT22;6305;48.398;11.762;2023-05-29T05:29:44;17.20;99.90
12481;DHT22;6305;48.398;11.762;2023-05-29T05:32:11;17.60;99.90
12481;DHT22;6305;48.398;11.762;2023-05-29T05:34:38;17.90;99.90
12481;DHT22;6305;48.398;11.762;2023-05-29T05:37:06;18.30;97.80
12481;DHT22;6305;48.398;11.762;2023-05-29T05:39:33;18.60;94.70
12481;DHT22;6305;48.398;11.762;2023-05-29T05:42:01;18.90;92.40
12481;DHT22;6305;48.398;11.762;2023-05-29T05:44:46;19.30;90.20
12481;DHT22;6305;48.398;11.762;2023-05-29T05:47:14;19.70;82.10
12481;DHT22;6305;48.398;11.762;2023-05-29T05:49:41;19.80;78.30
12481;DHT22;6305;48.398;11.762;2023-05-29T05:52:09;20.20;75.50
12481;DHT22;6305;48.398;11.762;2023-05-29T05:54:36;20.60;70.80
12481;DHT22;6305;48.398;11.762;2023-05-29T05:57:03;20.90;67.30
12481;DHT22;6305;48.398;11.762;2023-05-29T05:59:32;21.20;64.50
12481;DHT22;6305;48.398;11.762;2023-05-29T06:02:04;21.60;63.20
12481;DHT22;6305;48.398;11.762;2023-05-29T06:04:30;22.00;60.40
12481;DHT22;6305;48.398;11.762;2023-05-29T06:06:58;22.30;58.50
12481;DHT22;6305;48.398;11.762;2023-05-29T06:09:25;22.80;57.20
12481;DHT22;6305;48.398;11.762;2023-05-29T06:11:55;23.40;54.90
12481;DHT22;6305;48.398;11.762;2023-05-29T06:14:23;23.90;53.40
12481;DHT22;6305;48.398;11.762;2023-05-29T06:16:50;24.30;51.90
12481;DHT22;6305;48.398;11.762;2023-05-29T06:19:19;24.60;50.90
12481;DHT22;6305;48.398;11.762;2023-05-29T06:21:53;25.30;49.60
12481;DHT22;6305;48.398;11.762;2023-05-29T06:24:20;25.90;48.00
12481;DHT22;6305;48.398;11.762;2023-05-29T06:26:48;26.60;46.40
12481;DHT22;6305;48.398;11.762;2023-05-29T06:29:16;27.30;45.30
12481;DHT22;6305;48.398;11.762;2023-05-29T06:31:44;28.10;43.70
12481;DHT22;6305;48.398;11.762;2023-05-29T06:34:11;29.00;42.60
12481;DHT22;6305;48.398;11.762;2023-05-29T06:36:39;29.70;41.00
12481;DHT22;6305;48.398;11.762;2023-05-29T06:39:07;30.10;40.10
12481;DHT22;6305;48.398;11.762;2023-05-29T06:41:34;31.10;39.20
12481;DHT22;6305;48.398;11.762;2023-05-29T06:44:01;31.90;37.70
12481;DHT22;6305;48.398;11.762;2023-05-29T06:46:28;32.10;36.90
12481;DHT22;6305;48.398;11.762;2023-05-29T06:48:56;33.00;35.90
12481;DHT22;6305;48.398;11.762;2023-05-29T06:51:23;34.20;34.80
12481;DHT22;6305;48.398;11.762;2023-05-29T06:53:57;35.10;33.50
12481;DHT22;6305;48.398;11.762;2023-05-29T06:56:27;35.90;32.20
12481;DHT22;6305;48.398;11.762;2023-05-29T06:58:56;36.60;31.00
12481;DHT22;6305;48.398;11.762;2023-05-29T07:01:22;37.10;30.10
12481;DHT22;6305;48.398;11.762;2023-05-29T07:03:57;37.60;29.70
12481;DHT22;6305;48.398;11.762;2023-05-29T07:06:25;37.80;29.40
12481;DHT22;6305;48.398;11.762;2023-05-29T07:08:52;38.20;29.20
12481;DHT22;6305;48.398;11.762;2023-05-29T07:11:20;38.80;28.90
12481;DHT22;6305;48.398;11.762;2023-05-29T07:13:47;38.90;28.40
12481;DHT22;6305;48.398;11.762;2023-05-29T07:16:14;39.10;28.40
12481;DHT22;6305;48.398;11.762;2023-05-29T07:18:43;39.20;28.10
12481;DHT22;6305;48.398;11.762;2023-05-29T07:21:11;39.50;27.80
12481;DHT22;6305;48.398;11.762;2023-05-29T07:23:39;39.60;27.50
12481;DHT22;6305;48.398;11.762;2023-05-29T07:26:07;39.70;27.60
12481;DHT22;6305;48.398;11.762;2023-05-29T07:28:35;39.60;27.10
12481;DHT22;6305;48.398;11.762;2023-05-29T07:31:02;39.40;27.00
12481;DHT22;6305;48.398;11.762;2023-05-29T07:33:29;39.60;27.10
12481;DHT22;6305;48.398;11.762;2023-05-29T07:35:57;39.60;27.10
12481;DHT22;6305;48.398;11.762;2023-05-29T07:38:24;39.70;27.20
12481;DHT22;6305;48.398;11.762;2023-05-29T07:40:51;40.10;26.50
12481;DHT22;6305;48.398;11.762;2023-05-29T07:43:29;39.90;26.90
12481;DHT22;6305;48.398;11.762;2023-05-29T07:46:01;40.10;26.70
12481;DHT22;6305;48.398;11.762;2023-05-29T07:48:29;40.20;26.50
12481;DHT22;6305;48.398;11.762;2023-05-29T07:50:57;40.30;26.50
12481;DHT22;6305;48.398;11.762;2023-05-29T07:53:26;40.70;26.30
12481;DHT22;6305;48.398;11.762;2023-05-29T07:55:54;41.20;26.30
12481;DHT22;6305;48.398;11.762;2023-05-29T07:58:21;41.00;25.70
12481;DHT22;6305;48.398;11.762;2023-05-29T08:00:49;40.30;27.00
12481;DHT22;6305;48.398;11.762;2023-05-29T08:03:18;40.50;26.60
12481;DHT22;6305;48.398;11.762;2023-05-29T08:06:04;40.70;26.60
12481;DHT22;6305;48.398;11.762;2023-05-29T08:08:31;40.60;26.40
12481;DHT22;6305;48.398;11.762;2023-05-29T08:10:58;40.90;26.40
12481;DHT22;6305;48.398;11.762;2023-05-29T08:13:26;41.30;26.10
12481;DHT22;6305;48.398;11.762;2023-05-29T08:15:54;41.00;26.10
12481;DHT22;6305;48.398;11.762;2023-05-29T08:18:25;41.20;26.30
12481;DHT22;6305;48.398;11.762;2023-05-29T08:20:53;41.30;26.00
12481;DHT22;6305;48.398;11.762;2023-05-29T08:23:19;41.20;26.10
12481;DHT22;6305;48.398;11.762;2023-05-29T08:25:46;41.50;26.00
12481;DHT22;6305;48.398;11.762;2023-05-29T08:28:14;41.90;25.60
12481;DHT22;6305;48.398;11.762;2023-05-29T08:30:42;42.00;25.90
12481;DHT22;6305;48.398;11.762;2023-05-29T08:33:09;41.70;25.40
12481;DHT22;6305;48.398;11.762;2023-05-29T08:35:37;41.50;25.50
12481;DHT22;6305;48.398;11.762;2023-05-29T08:38:04;41.40;25.60
12481;DHT22;6305;48.398;11.762;2023-05-29T08:40:31;41.50;25.70
12481;DHT22;6305;48.398;11.762;2023-05-29T08:43:02;41.50;25.40
12481;DHT22;6305;48.398;11.762;2023-05-29T08:45:32;41.60;25.60
12481;DHT22;6305;48.398;11.762;2023-05-29T08:48:01;41.10;25.70
12481;DHT22;6305;48.398;11.762;2023-05-29T08:50:29;41.30;25.80
12481;DHT22;6305;48.398;11.762;2023-05-29T08:52:57;41.20;25.60
12481;DHT22;6305;48.398;11.762;2023-05-29T08:55:24;41.10;25.80
12481;DHT22;6305;48.398;11.762;2023-05-29T08:57:52;41.30;25.90
12481;DHT22;6305;48.398;11.762;2023-05-29T09:00:19;42.00;25.30
12481;DHT22;6305;48.398;11.762;2023-05-29T09:02:48;42.40;25.10
12481;DHT22;6305;48.398;11.762;2023-05-29T09:05:15;42.90;25.10
12481;DHT22;6305;48.398;11.762;2023-05-29T09:07:42;43.20;24.50
12481;DHT22;6305;48.398;11.762;2023-05-29T09:10:11;43.00;24.50
12481;DHT22;6305;48.398;11.762;2023-05-29T09:12:38;42.40;24.40
12481;DHT22;6305;48.398;11.762;2023-05-29T09:15:17;41.50;25.40
12481;DHT22;6305;48.398;11.762;2023-05-29T09:17:46;40.90;25.70
12481;DHT22;6305;48.398;11.762;2023-05-29T09:20:15;41.20;25.60
12481;DHT22;6305;48.398;11.762;2023-05-29T09:22:52;41.60;25.30
12481;DHT22;6305;48.398;11.762;2023-05-29T09:25:22;41.30;25.40
12481;DHT22;6305;48.398;11.762;2023-05-29T09:27:51;41.70;25.50
12481;DHT22;6305;48.398;11.762;2023-05-29T09:30:31;41.70;25.20
12481;DHT22;6305;48.398;11.762;2023-05-29T09:32:59;41.40;25.50
12481;DHT22;6305;48.398;11.762;2023-05-29T09:35:32;40.90;26.10
12481;DHT22;6305;48.398;11.762;2023-05-29T09:37:59;41.20;25.90
12481;DHT22;6305;48.398;11.762;2023-05-29T09:40:29;41.40;25.70
12481;DHT22;6305;48.398;11.762;2023-05-29T09:43:02;41.50;25.50
12481;DHT22;6305;48.398;11.762;2023-05-29T09:45:30;41.90;25.00
12481;DHT22;6305;48.398;11.762;2023-05-29T09:47:58;40.90;25.10
12481;DHT22;6305;48.398;11.762;2023-05-29T09:50:26;40.50;25.50
12481;DHT22;6305;48.398;11.762;2023-05-29T09:52:56;39.40;25.40
12481;DHT22;6305;48.398;11.762;2023-05-29T09:55:25;38.10;26.40
12481;DHT22;6305;48.398;11.762;2023-05-29T09:57:54;37.40;26.80
12481;DHT22;6305;48.398;11.762;2023-05-29T10:00:22;37.50;26.80
12481;DHT22;6305;48.398;11.762;2023-05-29T10:02:49;37.30;26.70
12481;DHT22;6305;48.398;11.762;2023-05-29T10:05:16;37.00;25.40
12481;DHT22;6305;48.398;11.762;2023-05-29T10:07:45;36.80;25.80
12481;DHT22;6305;48.398;11.762;2023-05-29T10:10:14;36.70;26.40
12481;DHT22;6305;48.398;11.762;2023-05-29T10:12:45;36.20;26.70
12481;DHT22;6305;48.398;11.762;2023-05-29T10:15:16;36.20;27.00
12481;DHT22;6305;48.398;11.762;2023-05-29T10:17:50;37.40;26.10
12481;DHT22;6305;48.398;11.762;2023-05-29T10:20:20;38.30;25.30
12481;DHT22;6305;48.398;11.762;2023-05-29T10:22:50;38.70;25.20
12481;DHT22;6305;48.398;11.762;2023-05-29T10:25:19;38.70;25.40
12481;DHT22;6305;48.398;11.762;2023-05-29T10:27:47;39.60;25.30
12481;DHT22;6305;48.398;11.762;2023-05-29T10:30:24;39.70;24.50
12481;DHT22;6305;48.398;11.762;2023-05-29T10:33:04;38.30;24.80
12481;DHT22;6305;48.398;11.762;2023-05-29T10:35:40;37.80;25.50
12481;DHT22;6305;48.398;11.762;2023-05-29T10:38:11;37.70;26.20
12481;DHT22;6305;48.398;11.762;2023-05-29T10:40:39;38.10;25.60
12481;DHT22;6305;48.398;11.762;2023-05-29T10:43:06;38.40;24.70
12481;DHT22;6305;48.398;11.762;2023-05-29T10:45:55;39.50;24.30
12481;DHT22;6305;48.398;11.762;2023-05-29T10:48:49;40.60;24.00
12481;DHT22;6305;48.398;11.762;2023-05-29T10:51:28;40.50;23.50
12481;DHT22;6305;48.398;11.762;2023-05-29T10:53:56;40.00;23.40
12481;DHT22;6305;48.398;11.762;2023-05-29T10:56:29;40.20;24.10
12481;DHT22;6305;48.398;11.762;2023-05-29T10:58:58;40.90;24.10
12481;DHT22;6305;48.398;11.762;2023-05-29T11:01:28;41.60;23.40
12481;DHT22;6305;48.398;11.762;2023-05-29T11:04:29;41.50;22.70
12481;DHT22;6305;48.398;11.762;2023-05-29T11:06:57;41.40;23.50
12481;DHT22;6305;48.398;11.762;2023-05-29T11:09:26;42.00;23.40
12481;DHT22;6305;48.398;11.762;2023-05-29T11:12:20;42.20;23.00
12481;DHT22;6305;48.398;11.762;2023-05-29T11:15:02;42.20;23.00
12481;DHT22;6305;48.398;11.762;2023-05-29T11:17:43;42.50;22.90
12481;DHT22;6305;48.398;11.762;2023-05-29T11:20:20;42.20;22.80
12481;DHT22;6305;48.398;11.762;2023-05-29T11:23:01;42.30;22.60
12481;DHT22;6305;48.398;11.762;2023-05-29T11:25:28;42.40;22.40
12481;DHT22;6305;48.398;11.762;2023-05-29T11:27:58;42.20;22.40
12481;DHT22;6305;48.398;11.762;2023-05-29T11:30:26;42.60;22.60
12481;DHT22;6305;48.398;11.762;2023-05-29T11:32:58;43.00;22.20
12481;DHT22;6305;48.398;11.762;2023-05-29T11:35:29;42.90;22.10
12481;DHT22;6305;48.398;11.762;2023-05-29T11:37:57;42.80;22.10
12481;DHT22;6305;48.398;11.762;2023-05-29T11:40:24;42.20;22.40
12481;DHT22;6305;48.398;11.762;2023-05-29T11:42:51;42.00;22.40
12481;DHT22;6305;48.398;11.762;2023-05-29T11:45:20;40.50;22.30
12481;DHT22;6305;48.398;11.762;2023-05-29T11:47:56;39.40;23.50
12481;DHT22;6305;48.398;11.762;2023-05-29T11:50:24;39.80;23.90
12481;DHT22;6305;48.398;11.762;2023-05-29T11:52:51;40.10;23.60
12481;DHT22;6305;48.398;11.762;2023-05-29T11:55:19;40.60;23.40
12481;DHT22;6305;48.398;11.762;2023-05-29T11:57:47;41.20;23.00
12481;DHT22;6305;48.398;11.762;2023-05-29T12:00:16;41.70;22.70
12481;DHT22;6305;48.398;11.762;2023-05-29T12:02:44;41.80;22.10
12481;DHT22;6305;48.398;11.762;2023-05-29T12:05:15;41.40;21.30
12481;DHT22;6305;48.398;11.762;2023-05-29T12:07:47;40.90;21.90
12481;DHT22;6305;48.398;11.762;2023-05-29T12:10:16;40.70;22.50
12481;DHT22;6305;48.398;11.762;2023-05-29T12:12:47;40.80;22.90
12481;DHT22;6305;48.398;11.762;2023-05-29T12:15:15;40.90;22.90
12481;DHT22;6305;48.398;11.762;2023-05-29T12:17:43;40.60;22.70
12481;DHT22;6305;48.398;11.762;2023-05-29T12:20:12;40.30;23.00
12481;DHT22;6305;48.398;11.762;2023-05-29T12:22:42;39.90;22.70
12481;DHT22;6305;48.398;11.762;2023-05-29T12:25:10;39.60;23.10
12481;DHT22;6305;48.398;11.762;2023-05-29T12:27:38;39.70;23.60
12481;DHT22;6305;48.398;11.762;2023-05-29T12:30:09;40.30;23.40
12481;DHT22;6305;48.398;11.762;2023-05-29T12:32:37;41.00;22.80
12481;DHT22;6305;48.398;11.762;2023-05-29T12:35:12;41.20;22.40
12481;DHT22;6305;48.398;11.762;2023-05-29T12:37:48;40.80;22.50
12481;DHT22;6305;48.398;11.762;2023-05-29T12:40:17;40.20;23.00
12481;DHT22;6305;48.398;11.762;2023-05-29T12:42:46;40.60;24.10
12481;DHT22;6305;48.398;11.762;2023-05-29T12:45:14;40.90;23.00
12481;DHT22;6305;48.398;11.762;2023-05-29T12:47:51;41.30;22.40
12481;DHT22;6305;48.398;11.762;2023-05-29T12:50:20;41.40;22.00
12481;DHT22;6305;48.398;11.762;2023-05-29T12:52:55;40.70;22.40
12481;DHT22;6305;48.398;11.762;2023-05-29T12:55:22;39.90;23.00
12481;DHT22;6305;48.398;11.762;2023-05-29T12:57:49;40.30;23.20
12481;DHT22;6305;48.398;11.762;2023-05-29T13:00:17;40.50;22.60
12481;DHT22;6305;48.398;11.762;2023-05-29T13:02:44;39.80;23.00
12481;DHT22;6305;48.398;11.762;2023-05-29T13:05:11;39.40;24.10
12481;DHT22;6305;48.398;11.762;2023-05-29T13:07:39;39.10;23.80
12481;DHT22;6305;48.398;11.762;2023-05-29T13:10:08;39.00;24.00
12481;DHT22;6305;48.398;11.762;2023-05-29T13:12:35;39.20;23.40
12481;DHT22;6305;48.398;11.762;2023-05-29T13:15:03;39.10;23.20
12481;DHT22;6305;48.398;11.762;2023-05-29T13:17:30;39.10;23.10
12481;DHT22;6305;48.398;11.762;2023-05-29T13:19:56;39.10;22.50
12481;DHT22;6305;48.398;11.762;2023-05-29T13:22:23;38.90;23.20
12481;DHT22;6305;48.398;11.762;2023-05-29T13:24:56;39.00;22.80
12481;DHT22;6305;48.398;11.762;2023-05-29T13:27:25;38.70;23.40
12481;DHT22;6305;48.398;11.762;2023-05-29T13:29:53;38.90;24.10
12481;DHT22;6305;48.398;11.762;2023-05-29T13:32:20;38.80;22.80
12481;DHT22;6305;48.398;11.762;2023-05-29T13:34:47;39.40;23.00
12481;DHT22;6305;48.398;11.762;2023-05-29T13:37:13;39.30;22.70
12481;DHT22;6305;48.398;11.762;2023-05-29T13:39:40;39.30;22.70
12481;DHT22;6305;48.398;11.762;2023-05-29T13:42:08;39.60;22.50
12481;DHT22;6305;48.398;11.762;2023-05-29T13:44:37;39.80;22.60
12481;DHT22;6305;48.398;11.762;2023-05-29T13:47:05;39.50;22.90
12481;DHT22;6305;48.398;11.762;2023-05-29T13:49:33;39.00;23.10
12481;DHT22;6305;48.398;11.762;2023-05-29T13:51:59;39.10;23.30
12481;DHT22;6305;48.398;11.762;2023-05-29T13:54:26;38.90;23.30
12481;DHT22;6305;48.398;11.762;2023-05-29T13:56:56;38.70;23.10
12481;DHT22;6305;48.398;11.762;2023-05-29T13:59:23;38.80;23.20
12481;DHT22;6305;48.398;11.762;2023-05-29T14:01:51;38.90;22.40
12481;DHT22;6305;48.398;11.762;2023-05-29T14:04:18;39.10;22.50
12481;DHT22;6305;48.398;11.762;2023-05-29T14:06:45;38.90;22.80
12481;DHT22;6305;48.398;11.762;2023-05-29T14:09:12;39.10;22.60
12481;DHT22;6305;48.398;11.762;2023-05-29T14:11:39;39.00;22.40
12481;DHT22;6305;48.398;11.762;2023-05-29T14:14:06;38.70;22.70
12481;DHT22;6305;48.398;11.762;2023-05-29T14:16:34;38.20;22.40
12481;DHT22;6305;48.398;11.762;2023-05-29T14:19:02;38.10;22.80
12481;DHT22;6305;48.398;11.762;2023-05-29T14:21:29;37.90;23.50
12481;DHT22;6305;48.398;11.762;2023-05-29T14:23:56;37.80;23.60
12481;DHT22;6305;48.398;11.762;2023-05-29T14:26:23;37.90;23.30
12481;DHT22;6305;48.398;11.762;2023-05-29T14:28:50;38.00;22.40
12481;DHT22;6305;48.398;11.762;2023-05-29T14:31:16;38.00;21.80
12481;DHT22;6305;48.398;11.762;2023-05-29T14:33:43;37.70;22.20
12481;DHT22;6305;48.398;11.762;2023-05-29T14:36:12;37.30;22.90
12481;DHT22;6305;48.398;11.762;2023-05-29T14:38:39;37.00;22.80
12481;DHT22;6305;48.398;11.762;2023-05-29T14:41:06;36.80;23.40
12481;DHT22;6305;48.398;11.762;2023-05-29T14:43:34;36.80;23.60
12481;DHT22;6305;48.398;11.762;2023-05-29T14:46:00;36.60;24.00
12481;DHT22;6305;48.398;11.762;2023-05-29T14:48:27;36.30;24.40
12481;DHT22;6305;48.398;11.762;2023-05-29T14:50:54;36.10;24.50
12481;DHT22;6305;48.398;11.762;2023-05-29T14:53:22;36.00;24.50
12481;DHT22;6305;48.398;11.762;2023-05-29T14:55:49;35.80;24.60
12481;DHT22;6305;48.398;11.762;2023-05-29T14:58:17;35.90;24.40
12481;DHT22;6305;48.398;11.762;2023-05-29T15:00:43;35.80;24.20
12481;DHT22;6305;48.398;11.762;2023-05-29T15:03:10;35.00;24.50
12481;DHT22;6305;48.398;11.762;2023-05-29T15:05:37;35.10;25.00
12481;DHT22;6305;48.398;11.762;2023-05-29T15:08:05;35.20;25.00
12481;DHT22;6305;48.398;11.762;2023-05-29T15:10:33;34.90;24.90
12481;DHT22;6305;48.398;11.762;2023-05-29T15:13:00;35.00;24.90
12481;DHT22;6305;48.398;11.762;2023-05-29T15:15:29;35.10;24.80
12481;DHT22;6305;48.398;11.762;2023-05-29T15:17:56;35.00;24.90
12481;DHT22;6305;48.398;11.762;2023-05-29T15:20:24;34.70;24.80
12481;DHT22;6305;48.398;11.762;2023-05-29T15:22:52;34.70;25.20
12481;DHT22;6305;48.398;11.762;2023-05-29T15:25:21;34.70;25.20
12481;DHT22;6305;48.398;11.762;2023-05-29T15:27:49;34.70;24.80
12481;DHT22;6305;48.398;11.762;2023-05-29T15:30:18;34.60;25.10
12481;DHT22;6305;48.398;11.762;2023-05-29T15:32:45;34.50;24.70
12481;DHT22;6305;48.398;11.762;2023-05-29T15:35:13;34.20;24.60
12481;DHT22;6305;48.398;11.762;2023-05-29T15:37:42;33.60;25.20
12481;DHT22;6305;48.398;11.762;2023-05-29T15:40:09;33.00;25.40
12481;DHT22;6305;48.398;11.762;2023-05-29T15:42:36;32.30;25.90
12481;DHT22;6305;48.398;11.762;2023-05-29T15:45:06;31.20;26.30